Aérodrome :
LOGIN :

S'inscrire | Disclaimer

   EN    FR    IT 

 










Légende :    VFR   VFR Marginal   IFR   IFR Intensif   IFR Très Intensif
Visi : 
Plafond : 
>= 8 km
>= 3000ft
5 à 8 km
1000 à 3000 ft
1500m à 5 km
500 à 1000 ft
800 à 1500m
200 à 500 ft
< 800m
< 200 ft
Symboles :   Orages  Brouillard  Fortes neiges  Fortes précipitations  Vent > 20 kt
SIGMETs :   Divers  Orages  Givrage  Turbulence  Onde Orograph.  Cendres Volcan.






- Altitude de l'aérodrome : 55 ft
- Code IATA : DSA


EGCN - Robin Hood Doncaster Sheffield

DERNIER METAR :
  • 291250Z 18004KT 4000 BR FEW003 BKN007 08/07 Q1027

METARs EXPIRÉS :
  • 291220Z 19004KT 4000 BR FEW002 BKN005 08/07 Q1027
  • 291150Z 20005KT 4000 BR FEW003 BKN006 07/07 Q1027
  • 291120Z 17004KT 4000 BR FEW003 BKN005 07/07 Q1027
  • 291050Z 16004KT 3500 BR FEW003 OVC004 07/07 Q1027
  • 291020Z 16003KT 3500 BR SCT004 BKN006 07/07 Q1027

TAF TAF EGCN
Valide du 29 à 12h jusqu'au 30 à 12h UTC


291059Z 2912/3012 VRB03KT 6000 BKN010
TEMPO 2912/3006 4000 BR BKN004
PROB30
TEMPO 2912/3003 SCT010
BECMG 3003/3006 9999 SCT020
TEMPO 3006/3012 BKN014
PROB30
TEMPO 3006/3012 6000 RA
BECMG 3009/3012 26012KT



MET'MAP, la Météo Aéronautique d'un coup d'oeil ! - Copyright ORBIFLY Décembre 2007 - Disclaimer

ORBIFLY MET'MAP TEAM :

Programmation & Développement : Alexandra Zaïnal
Sur une idée originale de : Baudouin d'Aumeries
Assistance à la programmation : Marc-Olivier Méhu
Soutien technique & logistique : Manuel Goepfert

Contact : metmap@orbifly.com




SOURCES & CREDITS :

   NOAA